Atlanta Spirit — C6CD2 — position and weather

sailwx.info

Track history (hours):
 
Tides and Currents Weather Stations Pressure Air Temp Water Temp Dewpoint Dewpoint Depression Visibility Wind Speed Wind Dir Waves Ship Positions

Atlanta Spirit

Last reported at 2017-Dec-14 14:59 UTC. Time now 2017-Dec-16 01:46 UTC.
Position N 30°03' W 118°46'.

Length 274 m; draft 9.3 m.

Type: Tanker. MMSI: 311000438.

Date/timePositionNaut miles runAvg speedWind from/ knotsBaromVisibWave heightAir tempDewpointWater temp
2017-Dec-14 14:59N 30°03' W 118°46'1 1.2
2017-Dec-14 14:23N 30°04' W 118°46'0 1.1
2017-Dec-14 14:00N 30°04' W 118°47'1 1.1
2017-Dec-14 13:30N 30°04' W 118°47'2 1.0
2017-Dec-14 11:41N 30°06' W 118°49'0 1.0
2017-Dec-14 11:26N 30°06' W 118°49'1 1.0
2017-Dec-14 10:03N 30°07' W 118°49'0 0.9
2017-Dec-14 10:00N 30°07' W 118°49'1 1.0
2017-Dec-14 08:44N 30°09' W 118°50'1 1.0
2017-Dec-14 08:10N 30°09' W 118°50'0 1.1
2017-Dec-14 08:01N 30°09' W 118°50'2 0.9
2017-Dec-14 05:38N 30°11' W 118°51'0 0.8
2017-Dec-14 05:28N 30°11' W 118°51'1 0.9
2017-Dec-14 04:42N 30°12' W 118°51'0 0.9
2017-Dec-14 04:31N 30°12' W 118°51'1 1.0
2017-Dec-14 04:00N 30°13' W 118°51'2 1.1
2017-Dec-14 02:24N 30°15' W 118°51'1 1.3
2017-Dec-14 01:19N 30°16' W 118°51'1 1.3
2017-Dec-14 00:42N 30°17' W 118°51'0 1.2
2017-Dec-14 00:30N 30°17' W 118°51'20 0.6
2017-Dec-12 17:34N 30°36' W 118°59'0 0.7
2017-Dec-12 17:29N 30°36' W 118°59'2 0.7
2017-Dec-12 13:46N 30°38' W 118°59'0 0.7
2017-Dec-12 13:18N 30°38' W 118°60'0 0.6
2017-Dec-12 13:00N 30°39' W 118°60'0 0.7
2017-Dec-12 12:30N 30°39' W 119°00'2 0.3
2017-Dec-12 06:58N 30°40' W 119°01'0 0.4
2017-Dec-12 06:31N 30°40' W 119°01'1 0.5
2017-Dec-12 04:57N 30°41' W 119°01'0 0.5
2017-Dec-12 04:30N 30°42' W 119°01'0 0.7
2017-Dec-12 04:00N 30°42' W 119°01'1 1.2
2017-Dec-12 03:30N 30°42' W 119°00'9311.0
2017-Dec-11 19:03N 32°01' W 118°02'112.3
2017-Dec-11 18:59N 32°02' W 118°01'612.3
2017-Dec-11 18:30N 32°07' W 117°59'1412.0
2017-Dec-11 17:21N 32°20' W 117°54'1011.6
2017-Dec-11 16:28N 32°30' W 117°51'511.4
2017-Dec-11 16:00N 32°35' W 117°49'611.8
2017-Dec-11 15:30N 32°41' W 117°50'612.3
2017-Dec-11 15:00N 32°47' W 117°52'612.4
2017-Dec-11 14:30N 32°53' W 117°54'612.5
2017-Dec-11 14:01N 32°58' W 117°58'612.6
2017-Dec-11 13:30N 33°04' W 118°01'612.8
2017-Dec-11 13:01N 33°10' W 118°04'612.7
2017-Dec-11 12:30N 33°16' W 118°05'2410.8
2017-Dec-11 10:17N 33°36' W 118°21'412.0
2017-Dec-11 09:59N 33°38' W 118°24'511.4
2017-Dec-11 09:30N 33°41' W 118°30'3 6.1
2017-Dec-11 09:00N 33°44' W 118°31'611.1
2017-Dec-11 08:30N 33°49' W 118°30'4 7.6
2017-Dec-11 07:57N 33°53' W 118°28'  
2017-Dec-08 19:58N 33°54' W 118°27'0 0.0
2017-Dec-08 19:30N 33°54' W 118°27'0 0.0
2017-Dec-08 19:00N 33°54' W 118°27'0 0.0
2017-Dec-08 18:27N 33°54' W 118°27'0 0.7
2017-Dec-08 17:58N 33°54' W 118°27'2 0.2
2017-Dec-08 08:49N 33°53' W 118°29'0 0.0
2017-Dec-08 08:16N 33°53' W 118°29'  
Track history (hours):
 
Tides and Currents Weather Stations Pressure Air Temp Water Temp Dewpoint Dewpoint Depression Visibility Wind Speed Wind Dir Waves Ship Positions

Atlanta Spirit

Last reported at 2017-Dec-14 14:59 UTC. Time now 2017-Dec-16 01:46 UTC.
Position N 30°03' W 118°46'.

Length 274 m; draft 9.3 m.

Type: Tanker. MMSI: 311000438.

Date/timePositionNaut miles runAvg speedWind from/ knotsBaromVisibWave heightAir tempDewpointWater temp
2017-Dec-14 14:59N 30°03' W 118°46'1 1.2
2017-Dec-14 14:23N 30°04' W 118°46'0 1.1
2017-Dec-14 14:00N 30°04' W 118°47'1 1.1
2017-Dec-14 13:30N 30°04' W 118°47'2 1.0
2017-Dec-14 11:41N 30°06' W 118°49'0 1.0
2017-Dec-14 11:26N 30°06' W 118°49'1 1.0
2017-Dec-14 10:03N 30°07' W 118°49'0 0.9
2017-Dec-14 10:00N 30°07' W 118°49'1 1.0
2017-Dec-14 08:44N 30°09' W 118°50'1 1.0
2017-Dec-14 08:10N 30°09' W 118°50'0 1.1
2017-Dec-14 08:01N 30°09' W 118°50'2 0.9
2017-Dec-14 05:38N 30°11' W 118°51'0 0.8
2017-Dec-14 05:28N 30°11' W 118°51'1 0.9
2017-Dec-14 04:42N 30°12' W 118°51'0 0.9
2017-Dec-14 04:31N 30°12' W 118°51'1 1.0
2017-Dec-14 04:00N 30°13' W 118°51'2 1.1
2017-Dec-14 02:24N 30°15' W 118°51'1 1.3
2017-Dec-14 01:19N 30°16' W 118°51'1 1.3
2017-Dec-14 00:42N 30°17' W 118°51'0 1.2
2017-Dec-14 00:30N 30°17' W 118°51'20 0.6
2017-Dec-12 17:34N 30°36' W 118°59'0 0.7
2017-Dec-12 17:29N 30°36' W 118°59'2 0.7
2017-Dec-12 13:46N 30°38' W 118°59'0 0.7
2017-Dec-12 13:18N 30°38' W 118°60'0 0.6
2017-Dec-12 13:00N 30°39' W 118°60'0 0.7
2017-Dec-12 12:30N 30°39' W 119°00'2 0.3
2017-Dec-12 06:58N 30°40' W 119°01'0 0.4
2017-Dec-12 06:31N 30°40' W 119°01'1 0.5
2017-Dec-12 04:57N 30°41' W 119°01'0 0.5
2017-Dec-12 04:30N 30°42' W 119°01'0 0.7
2017-Dec-12 04:00N 30°42' W 119°01'1 1.2
2017-Dec-12 03:30N 30°42' W 119°00'9311.0
2017-Dec-11 19:03N 32°01' W 118°02'112.3
2017-Dec-11 18:59N 32°02' W 118°01'612.3
2017-Dec-11 18:30N 32°07' W 117°59'1412.0
2017-Dec-11 17:21N 32°20' W 117°54'1011.6
2017-Dec-11 16:28N 32°30' W 117°51'511.4
2017-Dec-11 16:00N 32°35' W 117°49'611.8
2017-Dec-11 15:30N 32°41' W 117°50'612.3
2017-Dec-11 15:00N 32°47' W 117°52'612.4
2017-Dec-11 14:30N 32°53' W 117°54'612.5
2017-Dec-11 14:01N 32°58' W 117°58'612.6
2017-Dec-11 13:30N 33°04' W 118°01'612.8
2017-Dec-11 13:01N 33°10' W 118°04'612.7
2017-Dec-11 12:30N 33°16' W 118°05'2410.8
2017-Dec-11 10:17N 33°36' W 118°21'412.0
2017-Dec-11 09:59N 33°38' W 118°24'511.4
2017-Dec-11 09:30N 33°41' W 118°30'3 6.1
2017-Dec-11 09:00N 33°44' W 118°31'611.1
2017-Dec-11 08:30N 33°49' W 118°30'4 7.6
2017-Dec-11 07:57N 33°53' W 118°28'  
2017-Dec-08 19:58N 33°54' W 118°27'0 0.0
2017-Dec-08 19:30N 33°54' W 118°27'0 0.0
2017-Dec-08 19:00N 33°54' W 118°27'0 0.0
2017-Dec-08 18:27N 33°54' W 118°27'0 0.7
2017-Dec-08 17:58N 33°54' W 118°27'2 0.2
2017-Dec-08 08:49N 33°53' W 118°29'0 0.0
2017-Dec-08 08:16N 33°53' W 118°29'  

Dump ship's entire track history